sensor_id;sensor_type;location;lat;lon;timestamp;pressure;altitude;pressure_sealevel;temperature;humidity
21658;BME280;10990;48.174;9.782;2022-08-19T00:01:57;92549.38;;;19.69;100.00
21658;BME280;10990;48.174;9.782;2022-08-19T00:04:26;92562.19;;;19.43;100.00
21658;BME280;10990;48.174;9.782;2022-08-19T00:06:53;92551.38;;;19.53;100.00
21658;BME280;10990;48.174;9.782;2022-08-19T00:09:24;92533.53;;;19.73;100.00
21658;BME280;10990;48.174;9.782;2022-08-19T00:11:53;92513.06;;;19.82;100.00
21658;BME280;10990;48.174;9.782;2022-08-19T00:14:22;92520.91;;;19.73;100.00
21658;BME280;10990;48.174;9.782;2022-08-19T00:16:50;92518.59;;;19.66;100.00
21658;BME280;10990;48.174;9.782;2022-08-19T00:19:20;92507.84;;;19.66;100.00
21658;BME280;10990;48.174;9.782;2022-08-19T00:21:47;92511.19;;;19.82;100.00
21658;BME280;10990;48.174;9.782;2022-08-19T00:24:14;92530.06;;;19.72;100.00
21658;BME280;10990;48.174;9.782;2022-08-19T00:26:44;92556.91;;;19.67;100.00
21658;BME280;10990;48.174;9.782;2022-08-19T00:29:13;92555.03;;;19.67;100.00
21658;BME280;10990;48.174;9.782;2022-08-19T00:31:42;92552.63;;;19.66;100.00
21658;BME280;10990;48.174;9.782;2022-08-19T00:34:10;92554.75;;;19.69;100.00
21658;BME280;10990;48.174;9.782;2022-08-19T00:36:37;92556.81;;;19.77;100.00
21658;BME280;10990;48.174;9.782;2022-08-19T00:39:05;92564.34;;;19.75;100.00
21658;BME280;10990;48.174;9.782;2022-08-19T00:41:32;92574.28;;;19.75;100.00
21658;BME280;10990;48.174;9.782;2022-08-19T00:44:04;92568.56;;;19.81;100.00
21658;BME280;10990;48.174;9.782;2022-08-19T00:46:32;92577.97;;;19.79;100.00
21658;BME280;10990;48.174;9.782;2022-08-19T00:49:08;92585.84;;;19.65;100.00
21658;BME280;10990;48.174;9.782;2022-08-19T00:51:38;92577.00;;;19.69;100.00
21658;BME280;10990;48.174;9.782;2022-08-19T00:54:05;92580.81;;;19.58;100.00
21658;BME280;10990;48.174;9.782;2022-08-19T00:56:33;92579.94;;;19.68;100.00
21658;BME280;10990;48.174;9.782;2022-08-19T00:59:03;92591.66;;;19.43;100.00
21658;BME280;10990;48.174;9.782;2022-08-19T01:01:35;92590.00;;;19.47;100.00
21658;BME280;10990;48.174;9.782;2022-08-19T01:04:03;92591.13;;;19.41;100.00
21658;BME280;10990;48.174;9.782;2022-08-19T01:06:31;92599.78;;;19.27;100.00
21658;BME280;10990;48.174;9.782;2022-08-19T01:08:58;92586.97;;;19.19;100.00
21658;BME280;10990;48.174;9.782;2022-08-19T01:11:26;92570.88;;;19.24;100.00
21658;BME280;10990;48.174;9.782;2022-08-19T01:13:54;92561.47;;;19.32;100.00
21658;BME280;10990;48.174;9.782;2022-08-19T01:16:25;92554.75;;;19.35;100.00
21658;BME280;10990;48.174;9.782;2022-08-19T01:18:53;92570.28;;;19.33;100.00
21658;BME280;10990;48.174;9.782;2022-08-19T01:21:26;92575.91;;;19.31;100.00
21658;BME280;10990;48.174;9.782;2022-08-19T01:23:59;92591.81;;;19.17;100.00
21658;BME280;10990;48.174;9.782;2022-08-19T01:26:27;92583.44;;;19.29;100.00
21658;BME280;10990;48.174;9.782;2022-08-19T01:28:57;92595.78;;;19.25;100.00
21658;BME280;10990;48.174;9.782;2022-08-19T01:31:27;92610.31;;;19.19;100.00
21658;BME280;10990;48.174;9.782;2022-08-19T01:33:57;92600.63;;;19.23;100.00
21658;BME280;10990;48.174;9.782;2022-08-19T01:36:26;92614.56;;;19.20;100.00
21658;BME280;10990;48.174;9.782;2022-08-19T01:38:55;92619.88;;;19.30;100.00
21658;BME280;10990;48.174;9.782;2022-08-19T01:41:25;92643.78;;;19.16;100.00
21658;BME280;10990;48.174;9.782;2022-08-19T01:43:53;92656.94;;;19.13;100.00
21658;BME280;10990;48.174;9.782;2022-08-19T01:46:21;92675.25;;;18.95;100.00
21658;BME280;10990;48.174;9.782;2022-08-19T01:48:49;92667.66;;;19.13;100.00
21658;BME280;10990;48.174;9.782;2022-08-19T01:51:16;92689.19;;;18.92;100.00
21658;BME280;10990;48.174;9.782;2022-08-19T01:53:46;92674.63;;;19.14;100.00
21658;BME280;10990;48.174;9.782;2022-08-19T01:56:14;92702.28;;;18.99;100.00
21658;BME280;10990;48.174;9.782;2022-08-19T01:58:49;92718.91;;;18.96;100.00
21658;BME280;10990;48.174;9.782;2022-08-19T02:01:19;92724.47;;;19.10;100.00
21658;BME280;10990;48.174;9.782;2022-08-19T02:03:46;92737.50;;;19.32;100.00
21658;BME280;10990;48.174;9.782;2022-08-19T02:06:13;92750.94;;;19.21;100.00
21658;BME280;10990;48.174;9.782;2022-08-19T02:08:43;92766.78;;;19.13;100.00
21658;BME280;10990;48.174;9.782;2022-08-19T02:11:20;92768.13;;;19.10;100.00
21658;BME280;10990;48.174;9.782;2022-08-19T02:13:49;92756.56;;;19.20;100.00
21658;BME280;10990;48.174;9.782;2022-08-19T02:16:18;92769.97;;;19.20;100.00
21658;BME280;10990;48.174;9.782;2022-08-19T02:18:45;92776.66;;;19.22;100.00
21658;BME280;10990;48.174;9.782;2022-08-19T02:21:14;92777.72;;;19.26;100.00
21658;BME280;10990;48.174;9.782;2022-08-19T02:23:42;92782.06;;;19.07;100.00
21658;BME280;10990;48.174;9.782;2022-08-19T02:26:09;92782.06;;;19.02;100.00
21658;BME280;10990;48.174;9.782;2022-08-19T02:28:38;92765.22;;;18.96;100.00
21658;BME280;10990;48.174;9.782;2022-08-19T02:31:11;92772.72;;;18.94;100.00
21658;BME280;10990;48.174;9.782;2022-08-19T02:33:40;92760.66;;;18.97;100.00
21658;BME280;10990;48.174;9.782;2022-08-19T02:36:10;92757.44;;;19.00;100.00
21658;BME280;10990;48.174;9.782;2022-08-19T02:38:38;92738.34;;;19.17;100.00
21658;BME280;10990;48.174;9.782;2022-08-19T02:41:07;92758.97;;;19.21;100.00
21658;BME280;10990;48.174;9.782;2022-08-19T02:43:36;92776.16;;;19.15;100.00
21658;BME280;10990;48.174;9.782;2022-08-19T02:46:13;92790.09;;;19.07;100.00
21658;BME280;10990;48.174;9.782;2022-08-19T02:48:43;92803.81;;;18.75;100.00
21658;BME280;10990;48.174;9.782;2022-08-19T02:51:16;92786.94;;;18.79;100.00
21658;BME280;10990;48.174;9.782;2022-08-19T02:53:45;92763.09;;;18.88;100.00
21658;BME280;10990;48.174;9.782;2022-08-19T02:56:11;92762.53;;;18.96;100.00
21658;BME280;10990;48.174;9.782;2022-08-19T02:58:39;92794.69;;;18.60;100.00
21658;BME280;10990;48.174;9.782;2022-08-19T03:01:07;92785.06;;;18.59;100.00
21658;BME280;10990;48.174;9.782;2022-08-19T03:03:36;92778.63;;;18.60;100.00
21658;BME280;10990;48.174;9.782;2022-08-19T03:06:05;92779.72;;;18.65;100.00
21658;BME280;10990;48.174;9.782;2022-08-19T03:08:32;92752.16;;;18.79;100.00
21658;BME280;10990;48.174;9.782;2022-08-19T03:11:00;92756.16;;;18.67;100.00
21658;BME280;10990;48.174;9.782;2022-08-19T03:13:27;92739.25;;;18.97;100.00
21658;BME280;10990;48.174;9.782;2022-08-19T03:15:55;92731.97;;;19.13;100.00
21658;BME280;10990;48.174;9.782;2022-08-19T03:18:23;92741.03;;;19.17;100.00
21658;BME280;10990;48.174;9.782;2022-08-19T03:20:52;92761.13;;;19.14;100.00
21658;BME280;10990;48.174;9.782;2022-08-19T03:23:20;92761.38;;;19.23;100.00
21658;BME280;10990;48.174;9.782;2022-08-19T03:25:49;92780.44;;;19.11;100.00
21658;BME280;10990;48.174;9.782;2022-08-19T03:28:20;92782.56;;;19.19;100.00
21658;BME280;10990;48.174;9.782;2022-08-19T03:30:56;92790.91;;;19.08;100.00
21658;BME280;10990;48.174;9.782;2022-08-19T03:33:24;92803.75;;;19.00;100.00
21658;BME280;10990;48.174;9.782;2022-08-19T03:36:09;92795.25;;;18.78;100.00
21658;BME280;10990;48.174;9.782;2022-08-19T03:38:39;92770.56;;;19.01;100.00
21658;BME280;10990;48.174;9.782;2022-08-19T03:41:08;92778.88;;;19.00;100.00
21658;BME280;10990;48.174;9.782;2022-08-19T03:43:37;92764.66;;;19.10;100.00
21658;BME280;10990;48.174;9.782;2022-08-19T03:46:08;92770.25;;;19.18;100.00
21658;BME280;10990;48.174;9.782;2022-08-19T03:48:37;92775.38;;;19.04;100.00
21658;BME280;10990;48.174;9.782;2022-08-19T03:51:07;92770.53;;;19.12;100.00
21658;BME280;10990;48.174;9.782;2022-08-19T03:53:35;92773.25;;;19.07;100.00
21658;BME280;10990;48.174;9.782;2022-08-19T03:56:02;92777.81;;;18.86;100.00
21658;BME280;10990;48.174;9.782;2022-08-19T03:58:30;92767.66;;;18.77;100.00
21658;BME280;10990;48.174;9.782;2022-08-19T04:00:57;92750.75;;;18.97;100.00
21658;BME280;10990;48.174;9.782;2022-08-19T04:03:25;92738.66;;;19.10;100.00
21658;BME280;10990;48.174;9.782;2022-08-19T04:05:52;92749.09;;;19.12;100.00
21658;BME280;10990;48.174;9.782;2022-08-19T04:08:22;92763.56;;;19.06;100.00
21658;BME280;10990;48.174;9.782;2022-08-19T04:10:50;92771.13;;;18.88;100.00
21658;BME280;10990;48.174;9.782;2022-08-19T04:13:18;92769.28;;;18.78;100.00
21658;BME280;10990;48.174;9.782;2022-08-19T04:15:46;92755.88;;;18.84;100.00
21658;BME280;10990;48.174;9.782;2022-08-19T04:18:15;92736.34;;;18.83;100.00
21658;BME280;10990;48.174;9.782;2022-08-19T04:20:43;92727.25;;;18.79;100.00
21658;BME280;10990;48.174;9.782;2022-08-19T04:23:11;92709.84;;;18.87;100.00
21658;BME280;10990;48.174;9.782;2022-08-19T04:25:43;92706.31;;;18.96;100.00
21658;BME280;10990;48.174;9.782;2022-08-19T04:28:12;92715.44;;;18.85;100.00
21658;BME280;10990;48.174;9.782;2022-08-19T04:30:41;92722.34;;;19.01;100.00
21658;BME280;10990;48.174;9.782;2022-08-19T04:33:09;92735.28;;;18.84;100.00
21658;BME280;10990;48.174;9.782;2022-08-19T04:35:38;92740.38;;;18.75;100.00
21658;BME280;10990;48.174;9.782;2022-08-19T04:38:07;92736.63;;;18.76;100.00
21658;BME280;10990;48.174;9.782;2022-08-19T04:40:39;92725.34;;;18.85;100.00
21658;BME280;10990;48.174;9.782;2022-08-19T04:43:25;92728.56;;;18.71;100.00
21658;BME280;10990;48.174;9.782;2022-08-19T04:45:52;92734.22;;;18.70;100.00
21658;BME280;10990;48.174;9.782;2022-08-19T04:48:20;92746.25;;;18.83;100.00
21658;BME280;10990;48.174;9.782;2022-08-19T04:50:52;92742.78;;;18.82;100.00
21658;BME280;10990;48.174;9.782;2022-08-19T04:53:23;92764.47;;;18.70;100.00
21658;BME280;10990;48.174;9.782;2022-08-19T04:55:50;92771.44;;;18.76;100.00
21658;BME280;10990;48.174;9.782;2022-08-19T04:58:18;92771.97;;;18.78;100.00
21658;BME280;10990;48.174;9.782;2022-08-19T05:00:46;92770.88;;;18.90;100.00
21658;BME280;10990;48.174;9.782;2022-08-19T05:03:15;92780.25;;;18.77;100.00
21658;BME280;10990;48.174;9.782;2022-08-19T05:05:43;92785.06;;;18.80;100.00
21658;BME280;10990;48.174;9.782;2022-08-19T05:08:14;92786.69;;;18.76;100.00
21658;BME280;10990;48.174;9.782;2022-08-19T05:10:44;92788.56;;;18.70;100.00
21658;BME280;10990;48.174;9.782;2022-08-19T05:13:12;92794.16;;;18.69;100.00
21658;BME280;10990;48.174;9.782;2022-08-19T05:15:40;92788.28;;;18.87;100.00
21658;BME280;10990;48.174;9.782;2022-08-19T05:18:10;92788.00;;;18.84;100.00
21658;BME280;10990;48.174;9.782;2022-08-19T05:20:55;92780.50;;;18.80;100.00
21658;BME280;10990;48.174;9.782;2022-08-19T05:23:41;92786.16;;;18.79;100.00
21658;BME280;10990;48.174;9.782;2022-08-19T05:26:09;92781.84;;;18.83;100.00
21658;BME280;10990;48.174;9.782;2022-08-19T05:28:36;92796.59;;;18.75;100.00
21658;BME280;10990;48.174;9.782;2022-08-19T05:31:04;92797.91;;;18.78;100.00
21658;BME280;10990;48.174;9.782;2022-08-19T05:33:32;92794.19;;;18.79;100.00
21658;BME280;10990;48.174;9.782;2022-08-19T05:36:01;92781.34;;;18.76;100.00
21658;BME280;10990;48.174;9.782;2022-08-19T05:38:28;92778.38;;;18.83;100.00
21658;BME280;10990;48.174;9.782;2022-08-19T05:40:56;92782.13;;;18.76;100.00
21658;BME280;10990;48.174;9.782;2022-08-19T05:43:23;92769.53;;;18.82;100.00
21658;BME280;10990;48.174;9.782;2022-08-19T05:45:51;92773.00;;;18.93;100.00
21658;BME280;10990;48.174;9.782;2022-08-19T05:48:18;92784.28;;;18.64;100.00
21658;BME280;10990;48.174;9.782;2022-08-19T05:50:47;92778.63;;;18.71;100.00
21658;BME280;10990;48.174;9.782;2022-08-19T05:53:16;92760.97;;;18.85;100.00
21658;BME280;10990;48.174;9.782;2022-08-19T05:55:42;92764.44;;;18.80;100.00
21658;BME280;10990;48.174;9.782;2022-08-19T05:58:10;92760.97;;;18.80;100.00
21658;BME280;10990;48.174;9.782;2022-08-19T06:00:37;92765.25;;;18.86;100.00
21658;BME280;10990;48.174;9.782;2022-08-19T06:03:05;92777.56;;;18.92;100.00
21658;BME280;10990;48.174;9.782;2022-08-19T06:05:32;92777.28;;;18.89;100.00
21658;BME280;10990;48.174;9.782;2022-08-19T06:08:01;92775.13;;;18.96;100.00
21658;BME280;10990;48.174;9.782;2022-08-19T06:10:30;92778.88;;;18.95;100.00
21658;BME280;10990;48.174;9.782;2022-08-19T06:12:56;92787.75;;;18.85;100.00
21658;BME280;10990;48.174;9.782;2022-08-19T06:15:25;92779.16;;;18.98;100.00
21658;BME280;10990;48.174;9.782;2022-08-19T06:17:53;92776.41;;;19.09;100.00
21658;BME280;10990;48.174;9.782;2022-08-19T06:20:20;92782.38;;;18.90;100.00
21658;BME280;10990;48.174;9.782;2022-08-19T06:22:49;92779.66;;;19.00;100.00
21658;BME280;10990;48.174;9.782;2022-08-19T06:25:18;92784.50;;;19.03;100.00
21658;BME280;10990;48.174;9.782;2022-08-19T06:27:46;92790.13;;;19.02;100.00
21658;BME280;10990;48.174;9.782;2022-08-19T06:30:13;92796.56;;;18.86;100.00
21658;BME280;10990;48.174;9.782;2022-08-19T06:32:41;92786.91;;;19.00;100.00
21658;BME280;10990;48.174;9.782;2022-08-19T06:35:08;92801.13;;;18.80;100.00
21658;BME280;10990;48.174;9.782;2022-08-19T06:37:37;92794.16;;;18.89;100.00
21658;BME280;10990;48.174;9.782;2022-08-19T06:40:06;92781.28;;;19.01;100.00
21658;BME280;10990;48.174;9.782;2022-08-19T06:42:37;92783.97;;;19.01;100.00
21658;BME280;10990;48.174;9.782;2022-08-19T06:45:06;92786.34;;;19.13;100.00
21658;BME280;10990;48.174;9.782;2022-08-19T06:47:34;92795.97;;;19.14;100.00
21658;BME280;10990;48.174;9.782;2022-08-19T06:50:02;92816.06;;;19.12;100.00
21658;BME280;10990;48.174;9.782;2022-08-19T06:52:30;92819.56;;;19.07;100.00
21658;BME280;10990;48.174;9.782;2022-08-19T06:54:58;92818.72;;;19.12;100.00
21658;BME280;10990;48.174;9.782;2022-08-19T06:57:26;92818.78;;;19.07;100.00
21658;BME280;10990;48.174;9.782;2022-08-19T06:59:59;92817.16;;;19.11;100.00
21658;BME280;10990;48.174;9.782;2022-08-19T07:02:26;92827.06;;;19.10;100.00
21658;BME280;10990;48.174;9.782;2022-08-19T07:04:53;92827.88;;;19.00;100.00
21658;BME280;10990;48.174;9.782;2022-08-19T07:07:22;92835.09;;;19.00;100.00
21658;BME280;10990;48.174;9.782;2022-08-19T07:09:50;92825.22;;;18.95;100.00
21658;BME280;10990;48.174;9.782;2022-08-19T07:12:19;92814.22;;;19.07;100.00
21658;BME280;10990;48.174;9.782;2022-08-19T07:14:46;92811.78;;;19.06;100.00
21658;BME280;10990;48.174;9.782;2022-08-19T07:17:17;92805.88;;;19.09;100.00
21658;BME280;10990;48.174;9.782;2022-08-19T07:19:45;92798.94;;;19.02;100.00
21658;BME280;10990;48.174;9.782;2022-08-19T07:22:15;92795.47;;;18.97;100.00
21658;BME280;10990;48.174;9.782;2022-08-19T07:24:43;92794.19;;;18.84;100.00
21658;BME280;10990;48.174;9.782;2022-08-19T07:27:14;92784.78;;;18.92;100.00
21658;BME280;10990;48.174;9.782;2022-08-19T07:29:41;92783.47;;;18.79;100.00
21658;BME280;10990;48.174;9.782;2022-08-19T07:32:09;92778.38;;;18.77;100.00
21658;BME280;10990;48.174;9.782;2022-08-19T07:34:38;92759.31;;;19.04;100.00
21658;BME280;10990;48.174;9.782;2022-08-19T07:37:06;92771.09;;;19.03;100.00
21658;BME280;10990;48.174;9.782;2022-08-19T07:39:35;92766.53;;;19.04;100.00
21658;BME280;10990;48.174;9.782;2022-08-19T07:42:08;92771.16;;;18.78;100.00
21658;BME280;10990;48.174;9.782;2022-08-19T07:44:35;92757.44;;;18.95;100.00
21658;BME280;10990;48.174;9.782;2022-08-19T07:47:03;92758.00;;;18.92;100.00
21658;BME280;10990;48.174;9.782;2022-08-19T07:49:31;92758.81;;;18.92;100.00
21658;BME280;10990;48.174;9.782;2022-08-19T07:52:06;92740.06;;;18.92;100.00
21658;BME280;10990;48.174;9.782;2022-08-19T07:54:36;92752.09;;;18.95;100.00
21658;BME280;10990;48.174;9.782;2022-08-19T07:57:05;92749.13;;;19.07;100.00
21658;BME280;10990;48.174;9.782;2022-08-19T07:59:32;92745.38;;;19.08;100.00
21658;BME280;10990;48.174;9.782;2022-08-19T08:01:59;92742.44;;;18.99;100.00
21658;BME280;10990;48.174;9.782;2022-08-19T08:04:28;92745.44;;;18.92;100.00
21658;BME280;10990;48.174;9.782;2022-08-19T08:07:14;92740.31;;;19.01;100.00
21658;BME280;10990;48.174;9.782;2022-08-19T08:10:00;92752.38;;;18.93;100.00
21658;BME280;10990;48.174;9.782;2022-08-19T08:12:29;92766.56;;;18.89;100.00
21658;BME280;10990;48.174;9.782;2022-08-19T08:15:00;92775.94;;;18.91;100.00
21658;BME280;10990;48.174;9.782;2022-08-19T08:17:29;92779.66;;;19.00;100.00
21658;BME280;10990;48.174;9.782;2022-08-19T08:19:57;92790.16;;;18.87;100.00
21658;BME280;10990;48.174;9.782;2022-08-19T08:22:26;92785.31;;;18.89;100.00
21658;BME280;10990;48.174;9.782;2022-08-19T08:25:13;92750.47;;;19.04;100.00
21658;BME280;10990;48.174;9.782;2022-08-19T08:27:43;92768.44;;;18.98;100.00
21658;BME280;10990;48.174;9.782;2022-08-19T08:30:13;92772.75;;;18.84;100.00
21658;BME280;10990;48.174;9.782;2022-08-19T08:32:41;92754.78;;;18.95;100.00
21658;BME280;10990;48.174;9.782;2022-08-19T08:35:11;92757.19;;;18.96;100.00
21658;BME280;10990;48.174;9.782;2022-08-19T08:37:41;92736.22;;;19.19;100.00
21658;BME280;10990;48.174;9.782;2022-08-19T08:40:19;92743.69;;;19.27;100.00
21658;BME280;10990;48.174;9.782;2022-08-19T08:42:53;92741.75;;;19.38;100.00
21658;BME280;10990;48.174;9.782;2022-08-19T08:45:24;92760.19;;;19.49;100.00
21658;BME280;10990;48.174;9.782;2022-08-19T08:47:53;92781.09;;;19.53;100.00
21658;BME280;10990;48.174;9.782;2022-08-19T08:50:29;92794.22;;;19.54;100.00
21658;BME280;10990;48.174;9.782;2022-08-19T08:53:04;92785.50;;;19.88;100.00
21658;BME280;10990;48.174;9.782;2022-08-19T08:55:32;92807.50;;;19.85;100.00
21658;BME280;10990;48.174;9.782;2022-08-19T08:58:03;92824.09;;;19.87;100.00
21658;BME280;10990;48.174;9.782;2022-08-19T09:00:34;92843.00;;;19.66;100.00
21658;BME280;10990;48.174;9.782;2022-08-19T09:03:03;92848.25;;;19.87;100.00
21658;BME280;10990;48.174;9.782;2022-08-19T09:05:40;92874.59;;;19.59;100.00
21658;BME280;10990;48.174;9.782;2022-08-19T09:08:18;92883.44;;;19.70;100.00
21658;BME280;10990;48.174;9.782;2022-08-19T09:10:52;92914.00;;;19.64;100.00
21658;BME280;10990;48.174;9.782;2022-08-19T09:13:23;92921.81;;;19.60;100.00
21658;BME280;10990;48.174;9.782;2022-08-19T09:16:00;92933.34;;;19.71;100.00
21658;BME280;10990;48.174;9.782;2022-08-19T09:18:39;92936.22;;;19.90;100.00
21658;BME280;10990;48.174;9.782;2022-08-19T09:21:07;92939.41;;;20.02;100.00
21658;BME280;10990;48.174;9.782;2022-08-19T09:23:37;92946.91;;;20.05;100.00
21658;BME280;10990;48.174;9.782;2022-08-19T09:26:07;92946.00;;;20.25;100.00
21658;BME280;10990;48.174;9.782;2022-08-19T09:28:39;92952.38;;;20.34;100.00
21658;BME280;10990;48.174;9.782;2022-08-19T09:31:09;92949.25;;;20.22;100.00
21658;BME280;10990;48.174;9.782;2022-08-19T09:33:37;92966.06;;;20.38;100.00
21658;BME280;10990;48.174;9.782;2022-08-19T09:36:06;92981.69;;;20.26;100.00
21658;BME280;10990;48.174;9.782;2022-08-19T09:38:37;92990.84;;;20.14;100.00
21658;BME280;10990;48.174;9.782;2022-08-19T09:41:07;92989.25;;;20.13;100.00
21658;BME280;10990;48.174;9.782;2022-08-19T09:43:35;92999.50;;;19.96;100.00
21658;BME280;10990;48.174;9.782;2022-08-19T09:46:03;93005.69;;;19.97;100.00
21658;BME280;10990;48.174;9.782;2022-08-19T09:48:32;92999.22;;;19.98;100.00
21658;BME280;10990;48.174;9.782;2022-08-19T09:51:04;93001.38;;;19.96;100.00
21658;BME280;10990;48.174;9.782;2022-08-19T09:53:32;93014.78;;;19.96;100.00
21658;BME280;10990;48.174;9.782;2022-08-19T09:56:02;93007.75;;;20.10;100.00
21658;BME280;10990;48.174;9.782;2022-08-19T09:58:30;93037.34;;;19.89;100.00
21658;BME280;10990;48.174;9.782;2022-08-19T10:00:59;93054.25;;;19.80;100.00
21658;BME280;10990;48.174;9.782;2022-08-19T10:03:28;93047.81;;;19.86;100.00
21658;BME280;10990;48.174;9.782;2022-08-19T10:05:57;93037.59;;;19.93;100.00
21658;BME280;10990;48.174;9.782;2022-08-19T10:08:28;93026.84;;;20.03;100.00
21658;BME280;10990;48.174;9.782;2022-08-19T10:10:56;93046.72;;;19.92;100.00
21658;BME280;10990;48.174;9.782;2022-08-19T10:13:28;93056.41;;;19.88;100.00
21658;BME280;10990;48.174;9.782;2022-08-19T10:16:03;93067.66;;;19.85;100.00
21658;BME280;10990;48.174;9.782;2022-08-19T10:18:32;93074.34;;;20.03;100.00
21658;BME280;10990;48.174;9.782;2022-08-19T10:21:05;93087.25;;;19.80;100.00
21658;BME280;10990;48.174;9.782;2022-08-19T10:23:35;93109.75;;;19.64;100.00
21658;BME280;10990;48.174;9.782;2022-08-19T10:26:03;93108.16;;;19.78;100.00
21658;BME280;10990;48.174;9.782;2022-08-19T10:28:33;93103.06;;;19.87;100.00
21658;BME280;10990;48.174;9.782;2022-08-19T10:31:06;93112.72;;;19.88;100.00
21658;BME280;10990;48.174;9.782;2022-08-19T10:33:34;93123.19;;;19.74;100.00
21658;BME280;10990;48.174;9.782;2022-08-19T10:36:07;93111.63;;;19.74;100.00
21658;BME280;10990;48.174;9.782;2022-08-19T10:38:36;93112.13;;;19.40;100.00
21658;BME280;10990;48.174;9.782;2022-08-19T10:41:10;93094.97;;;19.51;100.00
21658;BME280;10990;48.174;9.782;2022-08-19T10:43:39;93072.50;;;19.67;100.00
21658;BME280;10990;48.174;9.782;2022-08-19T10:46:09;93070.59;;;19.53;100.00
21658;BME280;10990;48.174;9.782;2022-08-19T10:48:37;93044.03;;;19.56;100.00
21658;BME280;10990;48.174;9.782;2022-08-19T10:51:05;93021.25;;;19.64;100.00
21658;BME280;10990;48.174;9.782;2022-08-19T10:53:51;93013.75;;;19.51;100.00
21658;BME280;10990;48.174;9.782;2022-08-19T10:56:19;93007.34;;;19.46;100.00
21658;BME280;10990;48.174;9.782;2022-08-19T10:59:06;92997.16;;;19.43;100.00
21658;BME280;10990;48.174;9.782;2022-08-19T11:01:34;92978.66;;;19.57;100.00
21658;BME280;10990;48.174;9.782;2022-08-19T11:04:03;92986.97;;;19.35;100.00
21658;BME280;10990;48.174;9.782;2022-08-19T11:06:31;92973.03;;;19.28;100.00
21658;BME280;10990;48.174;9.782;2022-08-19T11:08:58;92973.03;;;19.38;100.00
21658;BME280;10990;48.174;9.782;2022-08-19T11:11:26;92961.53;;;19.38;100.00
21658;BME280;10990;48.174;9.782;2022-08-19T11:13:54;92959.94;;;19.32;100.00
21658;BME280;10990;48.174;9.782;2022-08-19T11:32:41;92878.16;;;19.34;100.00
21658;BME280;10990;48.174;9.782;2022-08-19T11:35:09;92878.41;;;19.48;100.00
21658;BME280;10990;48.174;9.782;2022-08-19T11:37:36;92890.47;;;19.45;100.00
21658;BME280;10990;48.174;9.782;2022-08-19T11:40:06;92892.06;;;19.52;100.00
21658;BME280;10990;48.174;9.782;2022-08-19T11:42:33;92901.72;;;19.53;100.00
21658;BME280;10990;48.174;9.782;2022-08-19T11:45:19;92891.53;;;19.44;100.00
21658;BME280;10990;48.174;9.782;2022-08-19T11:47:49;92895.56;;;19.47;100.00
21658;BME280;10990;48.174;9.782;2022-08-19T11:50:16;92891.84;;;19.43;100.00
21658;BME280;10990;48.174;9.782;2022-08-19T11:52:44;92877.59;;;19.47;100.00
21658;BME280;10990;48.174;9.782;2022-08-19T11:55:12;92863.63;;;19.56;100.00
21658;BME280;10990;48.174;9.782;2022-08-19T11:57:40;92854.00;;;19.60;100.00
21658;BME280;10990;48.174;9.782;2022-08-19T12:00:10;92852.13;;;19.45;100.00
21658;BME280;10990;48.174;9.782;2022-08-19T12:02:38;92860.19;;;19.45;100.00
21658;BME280;10990;48.174;9.782;2022-08-19T12:05:07;92859.09;;;19.51;100.00
21658;BME280;10990;48.174;9.782;2022-08-19T12:07:35;92864.25;;;19.37;100.00
21658;BME280;10990;48.174;9.782;2022-08-19T12:10:03;92862.38;;;19.38;100.00
21658;BME280;10990;48.174;9.782;2022-08-19T12:12:31;92842.19;;;19.56;100.00
21658;BME280;10990;48.174;9.782;2022-08-19T12:14:58;92860.19;;;19.40;100.00
21658;BME280;10990;48.174;9.782;2022-08-19T12:17:26;92847.84;;;19.54;100.00
21658;BME280;10990;48.174;9.782;2022-08-19T12:19:53;92851.88;;;19.46;100.00
21658;BME280;10990;48.174;9.782;2022-08-19T12:22:22;92848.91;;;19.53;100.00
21658;BME280;10990;48.174;9.782;2022-08-19T12:24:50;92860.47;;;19.43;100.00
21658;BME280;10990;48.174;9.782;2022-08-19T12:27:19;92860.19;;;19.45;100.00
21658;BME280;10990;48.174;9.782;2022-08-19T12:29:47;92865.28;;;19.52;100.00
21658;BME280;10990;48.174;9.782;2022-08-19T12:32:14;92885.41;;;19.29;100.00
21658;BME280;10990;48.174;9.782;2022-08-19T12:34:42;92878.94;;;19.40;100.00
21658;BME280;10990;48.174;9.782;2022-08-19T12:37:15;92877.59;;;19.47;100.00
21658;BME280;10990;48.174;9.782;2022-08-19T12:39:47;92890.50;;;19.30;100.00
21658;BME280;10990;48.174;9.782;2022-08-19T12:42:14;92895.31;;;19.33;100.00
21658;BME280;10990;48.174;9.782;2022-08-19T12:44:43;92871.13;;;19.54;100.00
21658;BME280;10990;48.174;9.782;2022-08-19T12:47:12;92875.16;;;19.51;100.00
21658;BME280;10990;48.174;9.782;2022-08-19T12:49:40;92867.94;;;19.52;100.00
21658;BME280;10990;48.174;9.782;2022-08-19T12:52:09;92890.25;;;19.32;100.00
21658;BME280;10990;48.174;9.782;2022-08-19T13:42:04;92799.00;;;18.82;100.00
21658;BME280;10990;48.174;9.782;2022-08-19T13:44:33;92812.34;;;18.72;100.00
21658;BME280;10990;48.174;9.782;2022-08-19T15:35:09;92703.94;;;18.85;100.00
21658;BME280;10990;48.174;9.782;2022-08-19T15:37:36;92732.34;;;18.75;100.00
21658;BME280;10990;48.174;9.782;2022-08-19T15:40:05;92732.59;;;18.79;100.00
21658;BME280;10990;48.174;9.782;2022-08-19T15:42:35;92744.13;;;18.74;100.00
21658;BME280;10990;48.174;9.782;2022-08-19T15:45:03;92743.03;;;18.80;100.00
21658;BME280;10990;48.174;9.782;2022-08-19T15:47:31;92743.03;;;18.70;100.00
21658;BME280;10990;48.174;9.782;2022-08-19T15:49:58;92744.13;;;18.74;100.00
21658;BME280;10990;48.174;9.782;2022-08-19T15:52:26;92745.44;;;18.72;100.00
21658;BME280;10990;48.174;9.782;2022-08-19T15:54:53;92739.00;;;18.78;100.00